createdAt,value
2023-03-25T00:03:18.028Z,42166.09
2023-03-25T00:08:22.439Z,42136.19
2023-03-25T00:13:32.106Z,42098.28
2023-03-25T00:18:38.040Z,42034.44
2023-03-25T00:23:43.247Z,42062.38
2023-03-25T00:28:48.875Z,42044.41
2023-03-25T00:33:53.373Z,42014.50
2023-03-25T00:38:57.771Z,41988.56
2023-03-25T00:44:04.875Z,41958.63
2023-03-25T00:49:09.095Z,41946.66
2023-03-25T00:54:13.646Z,41908.75
2023-03-25T00:59:19.160Z,41918.75
2023-03-25T01:04:23.656Z,41928.72
2023-03-25T01:09:27.911Z,41960.63
2023-03-25T01:14:33.481Z,41914.75
2023-03-25T01:19:38.405Z,41966.63
2023-03-25T01:24:43.036Z,42060.38
2023-03-25T01:29:48.605Z,42210.00
2023-03-25T01:34:52.948Z,42309.75
2023-03-25T01:39:57.093Z,42401.53
2023-03-25T01:45:21.338Z,42549.16
2023-03-25T01:50:29.401Z,42638.94
2023-03-25T01:55:35.770Z,42668.88
2023-03-25T02:00:44.723Z,42720.75
2023-03-25T02:05:57.157Z,42798.56
2023-03-25T02:11:01.843Z,42764.66
2023-03-25T02:16:27.369Z,42794.59
2023-03-25T02:22:15.380Z,42808.56
2023-03-25T02:27:34.180Z,42812.53
2023-03-25T02:33:06.067Z,42828.50
2023-03-25T02:38:26.715Z,42784.59
2023-03-25T02:43:34.865Z,42808.56
2023-03-25T02:48:46.225Z,42812.53
2023-03-25T02:53:54.707Z,42824.50
2023-03-25T02:58:59.270Z,42844.47
2023-03-25T03:04:03.667Z,42832.50
2023-03-25T03:09:25.780Z,42818.53
2023-03-25T03:14:45.078Z,42812.53
2023-03-25T03:19:54.247Z,42844.47
2023-03-25T03:25:06.410Z,42834.50
2023-03-25T03:30:15.180Z,42826.50
2023-03-25T03:35:25.795Z,42812.53
2023-03-25T03:40:34.826Z,42788.59
2023-03-25T03:45:41.914Z,42828.50
2023-03-25T03:50:50.846Z,42852.44
2023-03-25T03:56:02.237Z,42856.44
2023-03-25T04:01:11.788Z,42852.44
2023-03-25T04:06:24.694Z,42844.47
2023-03-25T04:11:37.257Z,42860.44
2023-03-25T04:16:45.903Z,42864.41
2023-03-25T04:21:50.526Z,42842.47
2023-03-25T04:26:57.989Z,42864.41
2023-03-25T04:32:03.002Z,42900.34
2023-03-25T04:37:07.609Z,42916.28
2023-03-25T04:42:14.267Z,42946.22
2023-03-25T04:47:24.678Z,43018.06
2023-03-25T04:52:29.109Z,43075.94
2023-03-25T04:57:35.031Z,43157.75
2023-03-25T05:02:39.649Z,43237.56
2023-03-25T05:07:45.656Z,43243.56
2023-03-25T05:12:52.465Z,43319.38
2023-03-25T05:17:56.834Z,43335.34
2023-03-25T05:23:01.307Z,43359.28
2023-03-25T05:28:10.111Z,43409.19
2023-03-25T05:33:16.672Z,43459.06
2023-03-25T05:38:21.201Z,43489.00
2023-03-25T05:43:27.009Z,43497.00
2023-03-25T05:48:32.583Z,43463.06
2023-03-25T05:53:37.676Z,43467.06
2023-03-25T05:58:43.679Z,43441.13
2023-03-25T06:03:48.440Z,43522.94
2023-03-25T06:08:53.149Z,43574.81
2023-03-25T06:13:59.391Z,43572.81
2023-03-25T06:19:05.338Z,43570.84
2023-03-25T06:24:12.506Z,43562.84
2023-03-25T06:29:18.768Z,43622.72
2023-03-25T06:34:23.716Z,43634.69
2023-03-25T06:39:31.392Z,43654.66
2023-03-25T06:44:39.110Z,43694.56
2023-03-25T06:49:43.283Z,43730.50
2023-03-25T06:54:47.491Z,43796.34
2023-03-25T06:59:53.120Z,43762.44
2023-03-25T07:04:57.557Z,43866.22
2023-03-25T07:10:02.629Z,43894.16
2023-03-25T07:15:09.965Z,43886.16
2023-03-25T07:20:18.938Z,43924.09
2023-03-25T07:25:23.484Z,43938.06
2023-03-25T07:30:29.093Z,43816.31
2023-03-25T07:35:33.342Z,43808.34
2023-03-25T07:40:37.723Z,44049.84
2023-03-25T07:45:43.689Z,44283.38
2023-03-25T07:50:49.756Z,44257.41
2023-03-25T07:55:54.344Z,44303.31
2023-03-25T08:01:00.138Z,44457.03
2023-03-25T08:06:04.634Z,44427.09
2023-03-25T08:11:09.204Z,44313.31
2023-03-25T08:16:16.319Z,44237.47
2023-03-25T08:21:25.879Z,44105.72
2023-03-25T08:26:29.969Z,44207.50
2023-03-25T08:31:38.913Z,44333.25
2023-03-25T08:36:43.388Z,44361.22
2023-03-25T08:41:47.952Z,44453.03
2023-03-25T08:46:53.557Z,44516.91
2023-03-25T08:51:59.324Z,44538.88
2023-03-25T08:57:04.448Z,44536.88
2023-03-25T09:02:11.958Z,44516.91
2023-03-25T09:07:16.237Z,44449.03
2023-03-25T09:12:20.471Z,44478.97
2023-03-25T09:17:26.465Z,44522.91
2023-03-25T09:22:30.849Z,44528.88
2023-03-25T09:27:35.900Z,44455.03
2023-03-25T09:32:41.862Z,44433.06
2023-03-25T09:37:51.838Z,44506.94
2023-03-25T09:43:08.704Z,44648.66
2023-03-25T09:48:24.587Z,44736.50
2023-03-25T09:53:36.885Z,44714.53
2023-03-25T09:58:45.761Z,44692.56
2023-03-25T10:04:00.858Z,44628.69
2023-03-25T10:09:27.425Z,44578.78
2023-03-25T10:14:39.648Z,44544.84
2023-03-25T10:19:55.940Z,44530.88
2023-03-25T10:25:04.257Z,44536.88
2023-03-25T10:30:15.685Z,44373.19
2023-03-25T10:35:25.457Z,44159.59
2023-03-25T10:40:34.967Z,44023.88
2023-03-25T10:45:42.701Z,43960.00
2023-03-25T10:50:49.885Z,43974.00
2023-03-25T10:55:59.156Z,43975.97
2023-03-25T11:01:12.365Z,44145.63
2023-03-25T11:06:26.813Z,44177.56
2023-03-25T11:11:35.069Z,44221.50
2023-03-25T11:16:46.241Z,44355.22
2023-03-25T11:21:58.394Z,44512.91
2023-03-25T11:27:04.291Z,44508.94
2023-03-25T11:32:10.152Z,44534.88
2023-03-25T11:37:21.204Z,44419.09
2023-03-25T11:42:33.294Z,44337.25
2023-03-25T11:47:40.672Z,44405.13
2023-03-25T11:52:48.242Z,44520.91
2023-03-25T11:57:53.970Z,44608.75
2023-03-25T12:03:02.365Z,44710.53
2023-03-25T12:08:15.658Z,44722.53
2023-03-25T12:13:33.599Z,44722.53
2023-03-25T12:18:50.331Z,44754.47
2023-03-25T12:24:08.420Z,44790.41
2023-03-25T12:29:27.148Z,44692.56
2023-03-25T12:34:44.735Z,44548.84
2023-03-25T12:40:09.360Z,44471.00
2023-03-25T12:45:29.907Z,44429.06
2023-03-25T12:50:50.970Z,44321.28
2023-03-25T12:56:10.752Z,44293.34
2023-03-25T13:01:26.412Z,44313.31
2023-03-25T13:06:37.323Z,44415.09
2023-03-25T13:11:48.042Z,44477.00
2023-03-25T13:16:56.737Z,44427.09
2023-03-25T13:22:05.767Z,44532.88
2023-03-25T13:27:15.526Z,44580.78
2023-03-25T13:32:23.007Z,44600.75
2023-03-25T13:37:30.971Z,44732.50
2023-03-25T13:42:44.760Z,44780.41
2023-03-25T13:47:55.371Z,44754.47
2023-03-25T13:53:06.729Z,44804.38
2023-03-25T13:58:51.504Z,44724.53
2023-03-25T14:04:20.779Z,44718.53
2023-03-25T14:09:52.496Z,44772.44
2023-03-25T14:15:01.801Z,44840.31
2023-03-25T14:20:12.668Z,44896.19
2023-03-25T14:25:23.432Z,44914.16
2023-03-25T14:30:30.296Z,44910.19
2023-03-25T14:35:51.623Z,44910.19
2023-03-25T14:41:03.441Z,44936.13
2023-03-25T14:46:22.088Z,44940.13
2023-03-25T14:51:50.650Z,44924.16
2023-03-25T14:57:01.957Z,44978.06
2023-03-25T15:02:16.692Z,44980.06
2023-03-25T15:07:41.121Z,45019.97
2023-03-25T15:12:46.282Z,44932.13
2023-03-25T15:17:51.887Z,44874.25
2023-03-25T15:23:33.350Z,44904.19
2023-03-25T15:28:50.160Z,44888.22
2023-03-25T15:34:12.691Z,44842.31
2023-03-25T15:39:37.015Z,44838.31
2023-03-25T15:45:11.280Z,44876.25
2023-03-25T15:50:42.028Z,44874.25
2023-03-25T15:55:52.800Z,44930.16
2023-03-25T16:01:04.992Z,44916.16
2023-03-25T16:06:17.201Z,44962.09
2023-03-25T16:11:31.565Z,44994.03
2023-03-25T16:16:40.937Z,44992.03
2023-03-25T16:21:49.385Z,45012.00
2023-03-25T16:26:54.155Z,44990.03
2023-03-25T16:32:00.206Z,44994.03
2023-03-25T16:37:07.360Z,45006.00
2023-03-25T16:42:19.705Z,44982.06
2023-03-25T16:47:25.020Z,44980.06
2023-03-25T16:52:35.261Z,44976.06
2023-03-25T16:57:41.377Z,44948.09
2023-03-25T17:02:48.684Z,44988.03
2023-03-25T17:08:03.557Z,44966.06
2023-03-25T17:13:11.050Z,44944.13
2023-03-25T17:18:18.442Z,44898.19
2023-03-25T17:23:34.623Z,44908.19
2023-03-25T17:28:42.602Z,44906.19
2023-03-25T17:33:51.192Z,44904.19
2023-03-25T17:38:58.776Z,44832.31
2023-03-25T17:44:03.367Z,44856.28
2023-03-25T17:49:16.798Z,44844.28
2023-03-25T17:54:22.807Z,44832.31
2023-03-25T17:59:27.507Z,44816.34
2023-03-25T18:04:31.658Z,44818.34
2023-03-25T18:09:41.423Z,44844.28
2023-03-25T18:14:45.988Z,44850.28
2023-03-25T18:19:50.859Z,44868.25
2023-03-25T18:24:58.835Z,44868.25
2023-03-25T18:30:07.347Z,44872.25
2023-03-25T18:35:11.900Z,44860.28
2023-03-25T18:40:24.532Z,44836.31
2023-03-25T18:45:29.032Z,44840.31
2023-03-25T18:50:35.092Z,44844.28
2023-03-25T18:55:44.145Z,44852.28
2023-03-25T19:00:49.568Z,44876.25
2023-03-25T19:05:54.341Z,44900.19
2023-03-25T19:11:11.755Z,44882.22
2023-03-25T19:16:24.038Z,44888.22
2023-03-25T19:21:28.361Z,44898.19
2023-03-25T19:26:33.974Z,44908.19
2023-03-25T19:31:38.774Z,44900.19
2023-03-25T19:36:42.973Z,44912.19
2023-03-25T19:41:49.686Z,44930.16
2023-03-25T19:46:53.968Z,44902.19
2023-03-25T19:51:58.398Z,44912.19
2023-03-25T19:57:04.763Z,44878.25
2023-03-25T20:02:09.061Z,44896.19
2023-03-25T20:07:13.664Z,44884.22
2023-03-25T20:12:19.638Z,44884.22
2023-03-25T20:17:24.535Z,44884.22
2023-03-25T20:22:29.648Z,44880.22
2023-03-25T20:27:35.550Z,44866.25
2023-03-25T20:32:42.122Z,44850.28
2023-03-25T20:37:49.130Z,44812.34
2023-03-25T20:42:55.043Z,44848.28
2023-03-25T20:47:59.883Z,44886.22
2023-03-25T20:53:04.549Z,44908.19
2023-03-25T20:58:11.583Z,44936.13
2023-03-25T21:03:16.492Z,44936.13
2023-03-25T21:08:20.775Z,44962.09
2023-03-25T21:13:28.852Z,44994.03
2023-03-25T21:18:33.042Z,44984.03
2023-03-25T21:23:43.025Z,44960.09
2023-03-25T21:28:49.970Z,45016.00
2023-03-25T21:33:56.712Z,45004.00
2023-03-25T21:39:02.790Z,45029.97
2023-03-25T21:44:09.083Z,45039.94
2023-03-25T21:49:14.291Z,45047.94
2023-03-25T21:54:19.269Z,45075.88
2023-03-25T21:59:25.330Z,45053.91
2023-03-25T22:04:29.549Z,45087.84
2023-03-25T22:09:33.935Z,45097.84
2023-03-25T22:14:39.705Z,45095.84
2023-03-25T22:19:43.842Z,45067.91
2023-03-25T22:24:48.155Z,45079.88
2023-03-25T22:29:53.785Z,45103.84
2023-03-25T22:34:58.564Z,45079.88
2023-03-25T22:40:03.268Z,45107.81
2023-03-25T22:45:10.203Z,45087.84
2023-03-25T22:50:14.625Z,45091.84
2023-03-25T22:55:19.075Z,45077.88
2023-03-25T23:00:27.118Z,45033.97
2023-03-25T23:05:31.502Z,45027.97
2023-03-25T23:10:35.682Z,44958.09
2023-03-25T23:15:41.405Z,44998.03
2023-03-25T23:20:49.858Z,44944.13
2023-03-25T23:26:05.755Z,44924.16
2023-03-25T23:31:13.373Z,44916.16
2023-03-25T23:36:20.051Z,44936.13
2023-03-25T23:41:26.052Z,44948.09
2023-03-25T23:46:32.304Z,44890.22
2023-03-25T23:51:38.700Z,44898.19
2023-03-25T23:56:43.525Z,44848.28
